sensor_id;sensor_type;location;lat;lon;timestamp;pressure;altitude;pressure_sealevel;temperature
76898;BMP180;65856;52.178;21.176;2023-06-26T00:01:17;100542.00;;;17.20
76898;BMP180;65856;52.178;21.176;2023-06-26T00:03:46;100539.20;;;17.20
76898;BMP180;65856;52.178;21.176;2023-06-26T00:06:12;100535.20;;;17.12
76898;BMP180;65856;52.178;21.176;2023-06-26T00:08:38;100541.80;;;17.10
76898;BMP180;65856;52.178;21.176;2023-06-26T00:11:04;100543.20;;;17.10
76898;BMP180;65856;52.178;21.176;2023-06-26T00:13:30;100542.40;;;17.06
76898;BMP180;65856;52.178;21.176;2023-06-26T00:15:55;100544.80;;;17.00
76898;BMP180;65856;52.178;21.176;2023-06-26T00:18:21;100541.60;;;16.96
76898;BMP180;65856;52.178;21.176;2023-06-26T00:20:48;100544.00;;;16.90
76898;BMP180;65856;52.178;21.176;2023-06-26T00:23:16;100537.20;;;16.90
76898;BMP180;65856;52.178;21.176;2023-06-26T00:25:43;100535.60;;;16.90
76898;BMP180;65856;52.178;21.176;2023-06-26T00:28:09;100541.40;;;16.90
76898;BMP180;65856;52.178;21.176;2023-06-26T00:30:34;100541.40;;;16.80
76898;BMP180;65856;52.178;21.176;2023-06-26T00:33:01;100545.00;;;16.80
76898;BMP180;65856;52.178;21.176;2023-06-26T00:35:27;100544.80;;;16.78
76898;BMP180;65856;52.178;21.176;2023-06-26T00:37:52;100546.00;;;16.80
76898;BMP180;65856;52.178;21.176;2023-06-26T00:40:18;100544.00;;;16.80
76898;BMP180;65856;52.178;21.176;2023-06-26T00:42:43;100542.40;;;16.80
76898;BMP180;65856;52.178;21.176;2023-06-26T00:45:09;100539.60;;;16.80
76898;BMP180;65856;52.178;21.176;2023-06-26T00:47:35;100543.20;;;16.80
76898;BMP180;65856;52.178;21.176;2023-06-26T00:50:02;100536.00;;;16.70
76898;BMP180;65856;52.178;21.176;2023-06-26T00:52:29;100538.20;;;16.72
76898;BMP180;65856;52.178;21.176;2023-06-26T00:54:55;100536.80;;;16.70
76898;BMP180;65856;52.178;21.176;2023-06-26T00:57:21;100539.00;;;16.70
76898;BMP180;65856;52.178;21.176;2023-06-26T00:59:48;100532.60;;;16.68
76898;BMP180;65856;52.178;21.176;2023-06-26T01:02:14;100528.60;;;16.60
76898;BMP180;65856;52.178;21.176;2023-06-26T01:04:43;100533.80;;;16.60
76898;BMP180;65856;52.178;21.176;2023-06-26T01:07:13;100530.80;;;16.60
76898;BMP180;65856;52.178;21.176;2023-06-26T01:09:40;100522.00;;;16.50
76898;BMP180;65856;52.178;21.176;2023-06-26T01:12:07;100524.40;;;16.50
76898;BMP180;65856;52.178;21.176;2023-06-26T01:14:36;100527.20;;;16.40
76898;BMP180;65856;52.178;21.176;2023-06-26T01:17:03;100528.40;;;16.40
76898;BMP180;65856;52.178;21.176;2023-06-26T01:19:31;100521.00;;;16.36
76898;BMP180;65856;52.178;21.176;2023-06-26T01:22:13;100514.80;;;16.30
76898;BMP180;65856;52.178;21.176;2023-06-26T01:24:56;100513.20;;;16.30
76898;BMP180;65856;52.178;21.176;2023-06-26T01:27:31;100510.60;;;16.30
76898;BMP180;65856;52.178;21.176;2023-06-26T01:30:01;100513.60;;;16.20
76898;BMP180;65856;52.178;21.176;2023-06-26T01:32:30;100510.80;;;16.20
76898;BMP180;65856;52.178;21.176;2023-06-26T01:34:59;100507.80;;;16.20
76898;BMP180;65856;52.178;21.176;2023-06-26T01:37:25;100509.60;;;16.12
76898;BMP180;65856;52.178;21.176;2023-06-26T01:39:50;100506.60;;;16.10
76898;BMP180;65856;52.178;21.176;2023-06-26T01:42:16;100507.80;;;16.10
76898;BMP180;65856;52.178;21.176;2023-06-26T01:44:46;100503.00;;;16.10
76898;BMP180;65856;52.178;21.176;2023-06-26T01:47:19;100508.20;;;16.10
76898;BMP180;65856;52.178;21.176;2023-06-26T01:49:58;100506.80;;;16.10
76898;BMP180;65856;52.178;21.176;2023-06-26T01:52:41;100505.00;;;16.00
76898;BMP180;65856;52.178;21.176;2023-06-26T01:55:24;100506.60;;;16.00
76898;BMP180;65856;52.178;21.176;2023-06-26T01:57:59;100498.00;;;15.90
76898;BMP180;65856;52.178;21.176;2023-06-26T02:00:25;100495.00;;;15.84
76898;BMP180;65856;52.178;21.176;2023-06-26T02:02:52;100500.40;;;15.80
76898;BMP180;65856;52.178;21.176;2023-06-26T02:05:17;100495.60;;;15.80
76898;BMP180;65856;52.178;21.176;2023-06-26T02:07:43;100494.60;;;15.80
76898;BMP180;65856;52.178;21.176;2023-06-26T02:10:09;100489.00;;;15.80
76898;BMP180;65856;52.178;21.176;2023-06-26T02:12:36;100486.60;;;15.74
76898;BMP180;65856;52.178;21.176;2023-06-26T02:15:03;100485.20;;;15.70
76898;BMP180;65856;52.178;21.176;2023-06-26T02:17:30;100485.20;;;15.70
76898;BMP180;65856;52.178;21.176;2023-06-26T02:19:56;100484.80;;;15.74
76898;BMP180;65856;52.178;21.176;2023-06-26T02:22:21;100488.80;;;15.74
76898;BMP180;65856;52.178;21.176;2023-06-26T02:24:47;100483.00;;;15.78
76898;BMP180;65856;52.178;21.176;2023-06-26T02:27:13;100483.80;;;15.70
76898;BMP180;65856;52.178;21.176;2023-06-26T02:29:40;100479.40;;;15.72
76898;BMP180;65856;52.178;21.176;2023-06-26T02:32:06;100482.80;;;15.78
76898;BMP180;65856;52.178;21.176;2023-06-26T02:34:32;100475.80;;;15.70
76898;BMP180;65856;52.178;21.176;2023-06-26T02:36:58;100474.20;;;15.70
76898;BMP180;65856;52.178;21.176;2023-06-26T02:39:26;100472.20;;;15.70
76898;BMP180;65856;52.178;21.176;2023-06-26T02:41:52;100476.00;;;15.62
76898;BMP180;65856;52.178;21.176;2023-06-26T02:44:18;100479.60;;;15.60
76898;BMP180;65856;52.178;21.176;2023-06-26T02:46:43;100480.20;;;15.60
76898;BMP180;65856;52.178;21.176;2023-06-26T02:49:09;100479.80;;;15.60
76898;BMP180;65856;52.178;21.176;2023-06-26T02:51:35;100486.60;;;15.60
76898;BMP180;65856;52.178;21.176;2023-06-26T02:54:00;100489.20;;;15.60
76898;BMP180;65856;52.178;21.176;2023-06-26T02:56:27;100494.40;;;15.60
76898;BMP180;65856;52.178;21.176;2023-06-26T02:58:57;100488.80;;;15.60
76898;BMP180;65856;52.178;21.176;2023-06-26T03:01:22;100487.80;;;15.60
76898;BMP180;65856;52.178;21.176;2023-06-26T03:03:48;100487.40;;;15.60
76898;BMP180;65856;52.178;21.176;2023-06-26T03:06:14;100491.60;;;15.60
76898;BMP180;65856;52.178;21.176;2023-06-26T03:08:41;100488.60;;;15.60
76898;BMP180;65856;52.178;21.176;2023-06-26T03:11:08;100487.20;;;15.60
76898;BMP180;65856;52.178;21.176;2023-06-26T03:13:35;100484.60;;;15.60
76898;BMP180;65856;52.178;21.176;2023-06-26T03:16:03;100482.00;;;15.60
76898;BMP180;65856;52.178;21.176;2023-06-26T03:18:29;100484.60;;;15.60
76898;BMP180;65856;52.178;21.176;2023-06-26T03:20:57;100481.20;;;15.60
76898;BMP180;65856;52.178;21.176;2023-06-26T03:23:23;100482.00;;;15.74
76898;BMP180;65856;52.178;21.176;2023-06-26T03:25:50;100481.60;;;15.90
76898;BMP180;65856;52.178;21.176;2023-06-26T03:28:15;100476.80;;;16.00
76898;BMP180;65856;52.178;21.176;2023-06-26T03:30:41;100479.00;;;16.42
76898;BMP180;65856;52.178;21.176;2023-06-26T03:33:06;100479.60;;;16.80
76898;BMP180;65856;52.178;21.176;2023-06-26T03:35:32;100480.40;;;17.24
76898;BMP180;65856;52.178;21.176;2023-06-26T03:37:58;100478.20;;;17.74
76898;BMP180;65856;52.178;21.176;2023-06-26T03:40:26;100478.00;;;18.44
76898;BMP180;65856;52.178;21.176;2023-06-26T03:42:51;100481.60;;;19.16
76898;BMP180;65856;52.178;21.176;2023-06-26T03:45:17;100479.40;;;19.84
76898;BMP180;65856;52.178;21.176;2023-06-26T03:47:44;100482.60;;;20.40
76898;BMP180;65856;52.178;21.176;2023-06-26T03:50:09;100481.20;;;20.40
76898;BMP180;65856;52.178;21.176;2023-06-26T03:52:35;100486.60;;;20.22
76898;BMP180;65856;52.178;21.176;2023-06-26T03:55:00;100489.80;;;20.20
76898;BMP180;65856;52.178;21.176;2023-06-26T03:57:26;100488.20;;;20.14
76898;BMP180;65856;52.178;21.176;2023-06-26T03:59:52;100489.40;;;20.10
76898;BMP180;65856;52.178;21.176;2023-06-26T04:02:18;100487.20;;;20.10
76898;BMP180;65856;52.178;21.176;2023-06-26T04:04:44;100489.00;;;20.20
76898;BMP180;65856;52.178;21.176;2023-06-26T04:07:10;100489.20;;;20.10
76898;BMP180;65856;52.178;21.176;2023-06-26T04:09:35;100489.60;;;20.10
76898;BMP180;65856;52.178;21.176;2023-06-26T04:12:01;100492.20;;;20.20
76898;BMP180;65856;52.178;21.176;2023-06-26T04:14:27;100497.60;;;20.30
76898;BMP180;65856;52.178;21.176;2023-06-26T04:16:52;100498.40;;;20.30
76898;BMP180;65856;52.178;21.176;2023-06-26T04:19:18;100499.40;;;20.30
76898;BMP180;65856;52.178;21.176;2023-06-26T04:21:43;100499.60;;;20.40
76898;BMP180;65856;52.178;21.176;2023-06-26T04:24:09;100500.40;;;20.40
76898;BMP180;65856;52.178;21.176;2023-06-26T04:26:34;100500.20;;;20.50
76898;BMP180;65856;52.178;21.176;2023-06-26T04:29:01;100500.40;;;20.60
76898;BMP180;65856;52.178;21.176;2023-06-26T04:31:27;100499.60;;;20.70
76898;BMP180;65856;52.178;21.176;2023-06-26T04:33:53;100504.00;;;20.80
76898;BMP180;65856;52.178;21.176;2023-06-26T04:36:21;100498.60;;;20.92
76898;BMP180;65856;52.178;21.176;2023-06-26T04:38:47;100497.60;;;21.00
76898;BMP180;65856;52.178;21.176;2023-06-26T04:41:15;100497.00;;;21.18
76898;BMP180;65856;52.178;21.176;2023-06-26T04:43:40;100495.80;;;21.40
76898;BMP180;65856;52.178;21.176;2023-06-26T04:46:06;100492.80;;;21.56
76898;BMP180;65856;52.178;21.176;2023-06-26T04:48:32;100494.20;;;21.70
76898;BMP180;65856;52.178;21.176;2023-06-26T04:50:58;100499.00;;;21.80
76898;BMP180;65856;52.178;21.176;2023-06-26T04:53:24;100494.80;;;21.86
76898;BMP180;65856;52.178;21.176;2023-06-26T04:55:51;100497.20;;;21.90
76898;BMP180;65856;52.178;21.176;2023-06-26T04:58:19;100502.00;;;22.00
76898;BMP180;65856;52.178;21.176;2023-06-26T05:00:44;100502.40;;;22.00
76898;BMP180;65856;52.178;21.176;2023-06-26T05:03:12;100504.40;;;22.00
76898;BMP180;65856;52.178;21.176;2023-06-26T05:05:39;100499.80;;;22.10
76898;BMP180;65856;52.178;21.176;2023-06-26T05:08:21;100496.20;;;22.20
76898;BMP180;65856;52.178;21.176;2023-06-26T05:10:48;100496.20;;;22.44
76898;BMP180;65856;52.178;21.176;2023-06-26T05:13:14;100499.20;;;22.70
76898;BMP180;65856;52.178;21.176;2023-06-26T05:15:46;100498.00;;;22.90
76898;BMP180;65856;52.178;21.176;2023-06-26T05:18:12;100501.20;;;23.10
76898;BMP180;65856;52.178;21.176;2023-06-26T05:20:38;100500.40;;;23.26
76898;BMP180;65856;52.178;21.176;2023-06-26T05:23:04;100507.00;;;23.40
76898;BMP180;65856;52.178;21.176;2023-06-26T05:25:31;100501.80;;;23.48
76898;BMP180;65856;52.178;21.176;2023-06-26T05:27:59;100499.20;;;23.50
76898;BMP180;65856;52.178;21.176;2023-06-26T05:30:26;100493.20;;;23.52
76898;BMP180;65856;52.178;21.176;2023-06-26T05:32:53;100494.00;;;23.60
76898;BMP180;65856;52.178;21.176;2023-06-26T05:35:23;100491.80;;;23.70
76898;BMP180;65856;52.178;21.176;2023-06-26T05:37:50;100491.80;;;23.76
76898;BMP180;65856;52.178;21.176;2023-06-26T05:40:17;100497.80;;;23.82
76898;BMP180;65856;52.178;21.176;2023-06-26T05:42:44;100493.00;;;23.92
76898;BMP180;65856;52.178;21.176;2023-06-26T05:45:10;100491.80;;;24.08
76898;BMP180;65856;52.178;21.176;2023-06-26T05:47:37;100488.80;;;24.20
76898;BMP180;65856;52.178;21.176;2023-06-26T05:50:03;100491.20;;;24.40
76898;BMP180;65856;52.178;21.176;2023-06-26T05:52:30;100490.60;;;24.70
76898;BMP180;65856;52.178;21.176;2023-06-26T05:54:56;100489.60;;;24.80
76898;BMP180;65856;52.178;21.176;2023-06-26T05:57:27;100483.80;;;24.98
76898;BMP180;65856;52.178;21.176;2023-06-26T05:59:54;100484.80;;;25.20
76898;BMP180;65856;52.178;21.176;2023-06-26T06:02:20;100485.80;;;25.30
76898;BMP180;65856;52.178;21.176;2023-06-26T06:04:46;100487.20;;;25.40
76898;BMP180;65856;52.178;21.176;2023-06-26T06:07:12;100484.80;;;25.50
76898;BMP180;65856;52.178;21.176;2023-06-26T06:09:37;100480.20;;;25.50
76898;BMP180;65856;52.178;21.176;2023-06-26T06:12:07;100478.80;;;25.60
76898;BMP180;65856;52.178;21.176;2023-06-26T06:14:34;100478.60;;;25.50
76898;BMP180;65856;52.178;21.176;2023-06-26T06:17:00;100478.80;;;25.60
76898;BMP180;65856;52.178;21.176;2023-06-26T06:19:26;100484.40;;;25.88
76898;BMP180;65856;52.178;21.176;2023-06-26T06:21:52;100485.80;;;26.00
76898;BMP180;65856;52.178;21.176;2023-06-26T06:24:19;100483.20;;;25.90
76898;BMP180;65856;52.178;21.176;2023-06-26T06:26:45;100482.20;;;26.00
76898;BMP180;65856;52.178;21.176;2023-06-26T06:29:10;100476.60;;;26.20
76898;BMP180;65856;52.178;21.176;2023-06-26T06:31:36;100476.20;;;26.50
76898;BMP180;65856;52.178;21.176;2023-06-26T06:34:01;100478.00;;;26.80
76898;BMP180;65856;52.178;21.176;2023-06-26T06:36:27;100471.40;;;26.80
76898;BMP180;65856;52.178;21.176;2023-06-26T06:38:53;100469.00;;;26.80
76898;BMP180;65856;52.178;21.176;2023-06-26T06:41:19;100473.00;;;26.90
76898;BMP180;65856;52.178;21.176;2023-06-26T06:43:45;100471.80;;;27.06
76898;BMP180;65856;52.178;21.176;2023-06-26T06:46:11;100471.00;;;27.30
76898;BMP180;65856;52.178;21.176;2023-06-26T06:48:36;100474.60;;;27.36
76898;BMP180;65856;52.178;21.176;2023-06-26T06:51:02;100469.00;;;27.40
76898;BMP180;65856;52.178;21.176;2023-06-26T06:53:28;100469.00;;;27.60
76898;BMP180;65856;52.178;21.176;2023-06-26T06:55:54;100472.40;;;27.90
76898;BMP180;65856;52.178;21.176;2023-06-26T06:58:19;100472.20;;;28.08
76898;BMP180;65856;52.178;21.176;2023-06-26T07:00:45;100472.40;;;28.30
76898;BMP180;65856;52.178;21.176;2023-06-26T07:03:11;100475.20;;;28.50
76898;BMP180;65856;52.178;21.176;2023-06-26T07:05:37;100475.00;;;28.70
76898;BMP180;65856;52.178;21.176;2023-06-26T07:08:03;100468.80;;;28.96
76898;BMP180;65856;52.178;21.176;2023-06-26T07:10:29;100468.20;;;29.18
76898;BMP180;65856;52.178;21.176;2023-06-26T07:12:56;100469.60;;;29.20
76898;BMP180;65856;52.178;21.176;2023-06-26T07:15:21;100470.80;;;29.20
76898;BMP180;65856;52.178;21.176;2023-06-26T07:17:47;100467.40;;;29.20
76898;BMP180;65856;52.178;21.176;2023-06-26T07:20:13;100468.20;;;29.30
76898;BMP180;65856;52.178;21.176;2023-06-26T07:22:42;100469.60;;;29.38
76898;BMP180;65856;52.178;21.176;2023-06-26T07:25:08;100466.20;;;29.50
76898;BMP180;65856;52.178;21.176;2023-06-26T07:27:35;100461.40;;;29.60
76898;BMP180;65856;52.178;21.176;2023-06-26T07:30:02;100463.20;;;29.60
76898;BMP180;65856;52.178;21.176;2023-06-26T07:32:27;100469.80;;;29.70
76898;BMP180;65856;52.178;21.176;2023-06-26T07:34:53;100464.40;;;29.82
76898;BMP180;65856;52.178;21.176;2023-06-26T07:37:18;100467.20;;;29.90
76898;BMP180;65856;52.178;21.176;2023-06-26T07:39:44;100466.00;;;30.08
76898;BMP180;65856;52.178;21.176;2023-06-26T07:42:09;100465.80;;;30.02
76898;BMP180;65856;52.178;21.176;2023-06-26T07:44:35;100465.00;;;30.00
76898;BMP180;65856;52.178;21.176;2023-06-26T07:47:00;100462.60;;;30.00
76898;BMP180;65856;52.178;21.176;2023-06-26T07:49:26;100459.60;;;30.00
76898;BMP180;65856;52.178;21.176;2023-06-26T07:51:51;100452.60;;;30.10
76898;BMP180;65856;52.178;21.176;2023-06-26T07:54:16;100462.60;;;30.20
76898;BMP180;65856;52.178;21.176;2023-06-26T07:57:04;100459.40;;;30.36
76898;BMP180;65856;52.178;21.176;2023-06-26T07:59:33;100458.40;;;30.60
76898;BMP180;65856;52.178;21.176;2023-06-26T08:01:59;100461.20;;;30.70
76898;BMP180;65856;52.178;21.176;2023-06-26T08:04:27;100457.00;;;30.70
76898;BMP180;65856;52.178;21.176;2023-06-26T08:06:57;100456.60;;;30.86
76898;BMP180;65856;52.178;21.176;2023-06-26T08:09:27;100462.20;;;31.00
76898;BMP180;65856;52.178;21.176;2023-06-26T08:11:54;100460.20;;;31.08
76898;BMP180;65856;52.178;21.176;2023-06-26T08:14:21;100456.60;;;31.10
76898;BMP180;65856;52.178;21.176;2023-06-26T08:16:47;100463.40;;;31.10
76898;BMP180;65856;52.178;21.176;2023-06-26T08:19:15;100457.20;;;31.00
76898;BMP180;65856;52.178;21.176;2023-06-26T08:21:42;100453.00;;;31.10
76898;BMP180;65856;52.178;21.176;2023-06-26T08:24:09;100454.60;;;31.30
76898;BMP180;65856;52.178;21.176;2023-06-26T08:26:36;100457.40;;;31.30
76898;BMP180;65856;52.178;21.176;2023-06-26T08:29:02;100451.80;;;31.40
76898;BMP180;65856;52.178;21.176;2023-06-26T08:31:37;100451.20;;;31.50
76898;BMP180;65856;52.178;21.176;2023-06-26T08:34:04;100447.20;;;31.66
76898;BMP180;65856;52.178;21.176;2023-06-26T08:36:31;100454.40;;;31.70
76898;BMP180;65856;52.178;21.176;2023-06-26T08:38:57;100453.00;;;31.60
76898;BMP180;65856;52.178;21.176;2023-06-26T08:41:23;100447.60;;;31.30
76898;BMP180;65856;52.178;21.176;2023-06-26T08:43:49;100443.00;;;31.50
76898;BMP180;65856;52.178;21.176;2023-06-26T08:46:18;100445.20;;;31.70
76898;BMP180;65856;52.178;21.176;2023-06-26T08:48:49;100450.40;;;31.80
76898;BMP180;65856;52.178;21.176;2023-06-26T08:51:28;100452.60;;;31.80
76898;BMP180;65856;52.178;21.176;2023-06-26T08:54:00;100449.40;;;31.42
76898;BMP180;65856;52.178;21.176;2023-06-26T08:56:42;100454.40;;;30.96
76898;BMP180;65856;52.178;21.176;2023-06-26T08:59:09;100446.80;;;30.80
76898;BMP180;65856;52.178;21.176;2023-06-26T09:01:40;100449.40;;;30.94
76898;BMP180;65856;52.178;21.176;2023-06-26T09:04:06;100450.00;;;31.10
76898;BMP180;65856;52.178;21.176;2023-06-26T09:06:33;100444.80;;;31.28
76898;BMP180;65856;52.178;21.176;2023-06-26T09:08:58;100437.80;;;31.40
76898;BMP180;65856;52.178;21.176;2023-06-26T09:11:24;100438.80;;;31.52
76898;BMP180;65856;52.178;21.176;2023-06-26T09:13:50;100440.40;;;31.66
76898;BMP180;65856;52.178;21.176;2023-06-26T09:16:17;100434.20;;;31.78
76898;BMP180;65856;52.178;21.176;2023-06-26T09:18:42;100436.80;;;31.80
76898;BMP180;65856;52.178;21.176;2023-06-26T09:21:11;100438.60;;;31.88
76898;BMP180;65856;52.178;21.176;2023-06-26T09:23:39;100433.00;;;31.96
76898;BMP180;65856;52.178;21.176;2023-06-26T09:26:06;100423.40;;;32.10
76898;BMP180;65856;52.178;21.176;2023-06-26T09:28:33;100428.80;;;32.10
76898;BMP180;65856;52.178;21.176;2023-06-26T09:31:08;100429.40;;;32.10
76898;BMP180;65856;52.178;21.176;2023-06-26T09:33:37;100434.60;;;32.10
76898;BMP180;65856;52.178;21.176;2023-06-26T09:36:08;100429.60;;;32.20
76898;BMP180;65856;52.178;21.176;2023-06-26T09:38:35;100429.60;;;32.30
76898;BMP180;65856;52.178;21.176;2023-06-26T09:41:02;100432.20;;;32.30
76898;BMP180;65856;52.178;21.176;2023-06-26T09:43:28;100429.80;;;32.30
76898;BMP180;65856;52.178;21.176;2023-06-26T09:45:54;100426.40;;;32.30
76898;BMP180;65856;52.178;21.176;2023-06-26T09:48:20;100422.20;;;32.40
76898;BMP180;65856;52.178;21.176;2023-06-26T09:50:46;100424.00;;;32.40
76898;BMP180;65856;52.178;21.176;2023-06-26T09:53:13;100425.60;;;32.40
76898;BMP180;65856;52.178;21.176;2023-06-26T09:55:40;100424.00;;;32.50
76898;BMP180;65856;52.178;21.176;2023-06-26T09:58:11;100417.60;;;32.60
76898;BMP180;65856;52.178;21.176;2023-06-26T10:00:43;100420.20;;;32.80
76898;BMP180;65856;52.178;21.176;2023-06-26T10:03:12;100413.60;;;32.70
76898;BMP180;65856;52.178;21.176;2023-06-26T10:05:39;100411.20;;;32.60
76898;BMP180;65856;52.178;21.176;2023-06-26T10:08:05;100410.80;;;32.60
76898;BMP180;65856;52.178;21.176;2023-06-26T10:10:35;100412.80;;;32.60
76898;BMP180;65856;52.178;21.176;2023-06-26T10:13:15;100408.40;;;32.60
76898;BMP180;65856;52.178;21.176;2023-06-26T10:15:44;100409.80;;;32.70
76898;BMP180;65856;52.178;21.176;2023-06-26T10:18:13;100412.00;;;32.70
76898;BMP180;65856;52.178;21.176;2023-06-26T10:20:40;100405.20;;;32.70
76898;BMP180;65856;52.178;21.176;2023-06-26T10:23:08;100397.60;;;32.80
76898;BMP180;65856;52.178;21.176;2023-06-26T10:25:37;100398.20;;;32.90
76898;BMP180;65856;52.178;21.176;2023-06-26T10:28:07;100396.60;;;33.00
76898;BMP180;65856;52.178;21.176;2023-06-26T10:30:36;100400.80;;;33.00
76898;BMP180;65856;52.178;21.176;2023-06-26T10:33:03;100399.00;;;32.72
76898;BMP180;65856;52.178;21.176;2023-06-26T10:35:30;100398.40;;;32.38
76898;BMP180;65856;52.178;21.176;2023-06-26T10:38:03;100395.60;;;31.90
76898;BMP180;65856;52.178;21.176;2023-06-26T10:43:15;100394.00;;;31.38
76898;BMP180;65856;52.178;21.176;2023-06-26T10:45:49;100393.80;;;31.14
76898;BMP180;65856;52.178;21.176;2023-06-26T10:48:20;100389.00;;;31.10
76898;BMP180;65856;52.178;21.176;2023-06-26T10:50:50;100385.40;;;31.22
76898;BMP180;65856;52.178;21.176;2023-06-26T11:03:44;100382.60;;;30.64
76898;BMP180;65856;52.178;21.176;2023-06-26T11:06:13;100385.80;;;30.40
76898;BMP180;65856;52.178;21.176;2023-06-26T11:08:49;100381.00;;;30.20
76898;BMP180;65856;52.178;21.176;2023-06-26T11:14:23;100374.60;;;29.92
76898;BMP180;65856;52.178;21.176;2023-06-26T11:16:51;100365.60;;;29.80
76898;BMP180;65856;52.178;21.176;2023-06-26T11:19:18;100368.40;;;29.90
76898;BMP180;65856;52.178;21.176;2023-06-26T11:21:45;100363.20;;;29.90
76898;BMP180;65856;52.178;21.176;2023-06-26T11:24:12;100358.60;;;29.90
76898;BMP180;65856;52.178;21.176;2023-06-26T11:26:44;100357.40;;;29.90
76898;BMP180;65856;52.178;21.176;2023-06-26T11:29:11;100359.20;;;29.90
76898;BMP180;65856;52.178;21.176;2023-06-26T11:31:41;100355.40;;;29.90
76898;BMP180;65856;52.178;21.176;2023-06-26T11:34:12;100356.00;;;29.90
76898;BMP180;65856;52.178;21.176;2023-06-26T11:36:41;100354.60;;;29.94
76898;BMP180;65856;52.178;21.176;2023-06-26T11:39:08;100353.00;;;29.90
76898;BMP180;65856;52.178;21.176;2023-06-26T11:41:40;100352.00;;;29.80
76898;BMP180;65856;52.178;21.176;2023-06-26T11:44:09;100352.00;;;29.66
76898;BMP180;65856;52.178;21.176;2023-06-26T11:46:37;100350.80;;;29.50
76898;BMP180;65856;52.178;21.176;2023-06-26T11:49:07;100348.20;;;29.50
76898;BMP180;65856;52.178;21.176;2023-06-26T11:51:34;100348.60;;;29.52
76898;BMP180;65856;52.178;21.176;2023-06-26T11:54:02;100348.40;;;29.46
76898;BMP180;65856;52.178;21.176;2023-06-26T11:56:29;100346.80;;;29.30
76898;BMP180;65856;52.178;21.176;2023-06-26T11:59:05;100344.20;;;29.20
76898;BMP180;65856;52.178;21.176;2023-06-26T12:01:42;100343.60;;;29.20
76898;BMP180;65856;52.178;21.176;2023-06-26T12:04:14;100344.60;;;29.12
76898;BMP180;65856;52.178;21.176;2023-06-26T12:06:53;100341.40;;;29.04
76898;BMP180;65856;52.178;21.176;2023-06-26T12:09:23;100336.80;;;28.90
76898;BMP180;65856;52.178;21.176;2023-06-26T12:11:53;100336.00;;;28.80
76898;BMP180;65856;52.178;21.176;2023-06-26T12:14:20;100334.40;;;28.70
76898;BMP180;65856;52.178;21.176;2023-06-26T12:16:47;100325.00;;;28.70
76898;BMP180;65856;52.178;21.176;2023-06-26T12:19:13;100327.40;;;28.60
76898;BMP180;65856;52.178;21.176;2023-06-26T12:24:17;100334.00;;;28.50
76898;BMP180;65856;52.178;21.176;2023-06-26T12:26:49;100325.80;;;28.50
76898;BMP180;65856;52.178;21.176;2023-06-26T12:29:33;100326.40;;;28.40
76898;BMP180;65856;52.178;21.176;2023-06-26T12:31:59;100321.00;;;28.40
76898;BMP180;65856;52.178;21.176;2023-06-26T12:34:30;100315.80;;;28.40
76898;BMP180;65856;52.178;21.176;2023-06-26T12:37:10;100313.80;;;28.40
76898;BMP180;65856;52.178;21.176;2023-06-26T12:39:50;100310.20;;;28.40
76898;BMP180;65856;52.178;21.176;2023-06-26T12:42:19;100313.60;;;28.40
76898;BMP180;65856;52.178;21.176;2023-06-26T12:44:45;100308.60;;;28.40
76898;BMP180;65856;52.178;21.176;2023-06-26T12:47:14;100310.20;;;28.50
76898;BMP180;65856;52.178;21.176;2023-06-26T12:49:42;100312.00;;;28.40
76898;BMP180;65856;52.178;21.176;2023-06-26T12:52:12;100296.40;;;28.30
76898;BMP180;65856;52.178;21.176;2023-06-26T12:54:40;100295.20;;;28.30
76898;BMP180;65856;52.178;21.176;2023-06-26T12:57:08;100295.20;;;28.30
76898;BMP180;65856;52.178;21.176;2023-06-26T12:59:36;100296.60;;;28.30
76898;BMP180;65856;52.178;21.176;2023-06-26T13:02:03;100298.60;;;28.28
76898;BMP180;65856;52.178;21.176;2023-06-26T13:04:29;100292.20;;;28.12
76898;BMP180;65856;52.178;21.176;2023-06-26T13:06:55;100290.20;;;28.10
76898;BMP180;65856;52.178;21.176;2023-06-26T13:09:23;100288.00;;;28.14
76898;BMP180;65856;52.178;21.176;2023-06-26T13:11:53;100277.20;;;28.20
76898;BMP180;65856;52.178;21.176;2023-06-26T13:14:18;100273.20;;;28.30
76898;BMP180;65856;52.178;21.176;2023-06-26T13:16:44;100276.40;;;28.32
76898;BMP180;65856;52.178;21.176;2023-06-26T13:19:10;100273.00;;;28.40
76898;BMP180;65856;52.178;21.176;2023-06-26T13:21:36;100270.20;;;28.50
76898;BMP180;65856;52.178;21.176;2023-06-26T13:24:02;100265.40;;;28.50
76898;BMP180;65856;52.178;21.176;2023-06-26T13:26:29;100264.60;;;28.60
76898;BMP180;65856;52.178;21.176;2023-06-26T13:28:55;100262.40;;;28.60
76898;BMP180;65856;52.178;21.176;2023-06-26T13:31:21;100258.80;;;28.68
76898;BMP180;65856;52.178;21.176;2023-06-26T13:33:48;100258.80;;;28.70
76898;BMP180;65856;52.178;21.176;2023-06-26T13:36:18;100261.00;;;28.70
76898;BMP180;65856;52.178;21.176;2023-06-26T13:38:44;100259.80;;;28.72
76898;BMP180;65856;52.178;21.176;2023-06-26T13:41:09;100260.40;;;28.80
76898;BMP180;65856;52.178;21.176;2023-06-26T13:43:35;100247.20;;;28.80
76898;BMP180;65856;52.178;21.176;2023-06-26T13:46:01;100245.80;;;28.80
76898;BMP180;65856;52.178;21.176;2023-06-26T13:48:28;100240.80;;;28.86
76898;BMP180;65856;52.178;21.176;2023-06-26T13:50:54;100241.80;;;28.90
76898;BMP180;65856;52.178;21.176;2023-06-26T13:53:20;100239.00;;;28.92
76898;BMP180;65856;52.178;21.176;2023-06-26T13:55:46;100234.80;;;29.00
76898;BMP180;65856;52.178;21.176;2023-06-26T13:58:12;100233.00;;;29.00
76898;BMP180;65856;52.178;21.176;2023-06-26T14:00:39;100228.00;;;29.10
76898;BMP180;65856;52.178;21.176;2023-06-26T14:03:06;100223.20;;;29.10
76898;BMP180;65856;52.178;21.176;2023-06-26T14:05:33;100221.20;;;29.10